sensor_id;sensor_type;location;lat;lon;timestamp;P1;durP1;ratioP1;P2;durP2;ratioP2
11964;SDS011;6042;41.326;19.826;2022-08-03T05:26:48;91.30;;;13.03;;
11964;SDS011;6042;41.326;19.826;2022-08-03T05:29:17;38.60;;;5.17;;
11964;SDS011;6042;41.326;19.826;2022-08-03T05:31:45;69.20;;;7.73;;
11964;SDS011;6042;41.326;19.826;2022-08-03T05:34:14;129.77;;;12.37;;
11964;SDS011;6042;41.326;19.826;2022-08-03T05:36:42;81.00;;;8.73;;
11964;SDS011;6042;41.326;19.826;2022-08-03T05:39:11;76.93;;;9.37;;
11964;SDS011;6042;41.326;19.826;2022-08-03T05:41:39;53.10;;;7.60;;
11964;SDS011;6042;41.326;19.826;2022-08-03T05:44:09;18.97;;;3.73;;
11964;SDS011;6042;41.326;19.826;2022-08-03T05:46:38;32.33;;;5.57;;
11964;SDS011;6042;41.326;19.826;2022-08-03T05:49:06;99.90;;;11.18;;
11964;SDS011;6042;41.326;19.826;2022-08-03T05:51:35;48.72;;;5.57;;
11964;SDS011;6042;41.326;19.826;2022-08-03T05:54:03;27.60;;;3.80;;
11964;SDS011;6042;41.326;19.826;2022-08-03T05:56:32;39.58;;;4.97;;
11964;SDS011;6042;41.326;19.826;2022-08-03T05:59:01;40.83;;;4.55;;
11964;SDS011;6042;41.326;19.826;2022-08-03T06:01:51;27.70;;;3.70;;
11964;SDS011;6042;41.326;19.826;2022-08-03T06:04:20;15.52;;;3.10;;
11964;SDS011;6042;41.326;19.826;2022-08-03T06:06:49;39.80;;;5.70;;
11964;SDS011;6042;41.326;19.826;2022-08-03T06:09:18;101.78;;;9.45;;
11964;SDS011;6042;41.326;19.826;2022-08-03T06:11:46;73.82;;;8.05;;
11964;SDS011;6042;41.326;19.826;2022-08-03T06:14:14;8.85;;;2.47;;
11964;SDS011;6042;41.326;19.826;2022-08-03T06:16:43;6.93;;;2.35;;
11964;SDS011;6042;41.326;19.826;2022-08-03T06:19:13;11.85;;;2.50;;
11964;SDS011;6042;41.326;19.826;2022-08-03T06:21:41;7.13;;;2.15;;
11964;SDS011;6042;41.326;19.826;2022-08-03T06:24:10;25.27;;;3.97;;
11964;SDS011;6042;41.326;19.826;2022-08-03T06:26:40;33.92;;;4.15;;
11964;SDS011;6042;41.326;19.826;2022-08-03T06:29:09;20.67;;;3.97;;
11964;SDS011;6042;41.326;19.826;2022-08-03T06:31:37;12.23;;;1.90;;
11964;SDS011;6042;41.326;19.826;2022-08-03T06:34:06;3.65;;;1.48;;
11964;SDS011;6042;41.326;19.826;2022-08-03T06:36:56;3.70;;;1.60;;
11964;SDS011;6042;41.326;19.826;2022-08-03T06:39:28;2.13;;;1.60;;
11964;SDS011;6042;41.326;19.826;2022-08-03T06:41:56;2.67;;;1.60;;
11964;SDS011;6042;41.326;19.826;2022-08-03T06:44:25;2.15;;;1.98;;
11964;SDS011;6042;41.326;19.826;2022-08-03T06:46:53;4.22;;;1.90;;
11964;SDS011;6042;41.326;19.826;2022-08-03T06:49:22;4.47;;;1.80;;
11964;SDS011;6042;41.326;19.826;2022-08-03T06:51:51;9.68;;;2.40;;
11964;SDS011;6042;41.326;19.826;2022-08-03T06:54:31;6.72;;;2.33;;
11964;SDS011;6042;41.326;19.826;2022-08-03T06:57:03;4.10;;;2.25;;
11964;SDS011;6042;41.326;19.826;2022-08-03T06:59:33;4.05;;;1.80;;
11964;SDS011;6042;41.326;19.826;2022-08-03T07:02:22;5.03;;;2.08;;
11964;SDS011;6042;41.326;19.826;2022-08-03T07:04:54;5.68;;;2.08;;
11964;SDS011;6042;41.326;19.826;2022-08-03T07:07:23;9.10;;;2.80;;
11964;SDS011;6042;41.326;19.826;2022-08-03T07:09:57;5.45;;;2.63;;
11964;SDS011;6042;41.326;19.826;2022-08-03T07:12:28;9.43;;;2.40;;
11964;SDS011;6042;41.326;19.826;2022-08-03T07:14:58;3.78;;;2.20;;
11964;SDS011;6042;41.326;19.826;2022-08-03T07:17:30;9.43;;;2.88;;
11964;SDS011;6042;41.326;19.826;2022-08-03T07:20:01;5.85;;;2.00;;
11964;SDS011;6042;41.326;19.826;2022-08-03T07:22:32;9.90;;;2.97;;
11964;SDS011;6042;41.326;19.826;2022-08-03T07:25:02;6.38;;;3.90;;
11964;SDS011;6042;41.326;19.826;2022-08-03T07:27:31;10.73;;;2.22;;
11964;SDS011;6042;41.326;19.826;2022-08-03T07:30:00;3.78;;;2.05;;
11964;SDS011;6042;41.326;19.826;2022-08-03T07:32:29;4.10;;;2.13;;
11964;SDS011;6042;41.326;19.826;2022-08-03T07:34:57;20.33;;;4.82;;
11964;SDS011;6042;41.326;19.826;2022-08-03T07:37:27;6.45;;;2.40;;
11964;SDS011;6042;41.326;19.826;2022-08-03T07:39:56;9.05;;;1.88;;
11964;SDS011;6042;41.326;19.826;2022-08-03T07:42:27;11.27;;;2.20;;
11964;SDS011;6042;41.326;19.826;2022-08-03T07:44:56;4.35;;;1.92;;
11964;SDS011;6042;41.326;19.826;2022-08-03T07:47:25;3.50;;;1.70;;
11964;SDS011;6042;41.326;19.826;2022-08-03T07:50:02;2.08;;;1.75;;
11964;SDS011;6042;41.326;19.826;2022-08-03T07:52:34;5.15;;;1.92;;
11964;SDS011;6042;41.326;19.826;2022-08-03T07:55:16;3.38;;;1.80;;
11964;SDS011;6042;41.326;19.826;2022-08-03T07:57:46;4.60;;;2.00;;
11964;SDS011;6042;41.326;19.826;2022-08-03T08:00:25;2.22;;;1.90;;
11964;SDS011;6042;41.326;19.826;2022-08-03T08:02:54;3.58;;;2.00;;
11964;SDS011;6042;41.326;19.826;2022-08-03T08:05:22;5.75;;;2.05;;
11964;SDS011;6042;41.326;19.826;2022-08-03T08:07:51;3.15;;;1.73;;
11964;SDS011;6042;41.326;19.826;2022-08-03T08:10:19;3.00;;;1.90;;
11964;SDS011;6042;41.326;19.826;2022-08-03T08:12:49;3.40;;;1.80;;
11964;SDS011;6042;41.326;19.826;2022-08-03T08:15:18;3.55;;;2.20;;
11964;SDS011;6042;41.326;19.826;2022-08-03T08:17:48;4.28;;;2.25;;
11964;SDS011;6042;41.326;19.826;2022-08-03T08:20:18;5.80;;;2.58;;
11964;SDS011;6042;41.326;19.826;2022-08-03T08:22:57;6.32;;;1.95;;
11964;SDS011;6042;41.326;19.826;2022-08-03T08:25:28;3.47;;;1.80;;
11964;SDS011;6042;41.326;19.826;2022-08-03T08:27:59;4.77;;;1.90;;
11964;SDS011;6042;41.326;19.826;2022-08-03T08:30:50;6.57;;;2.05;;
11964;SDS011;6042;41.326;19.826;2022-08-03T08:33:19;1.88;;;1.77;;
11964;SDS011;6042;41.326;19.826;2022-08-03T08:35:50;5.38;;;1.70;;
11964;SDS011;6042;41.326;19.826;2022-08-03T08:38:20;3.58;;;1.60;;
11964;SDS011;6042;41.326;19.826;2022-08-03T08:40:49;4.68;;;2.00;;
11964;SDS011;6042;41.326;19.826;2022-08-03T08:43:19;3.45;;;2.15;;
11964;SDS011;6042;41.326;19.826;2022-08-03T08:45:48;2.53;;;1.70;;
11964;SDS011;6042;41.326;19.826;2022-08-03T08:48:17;5.63;;;1.63;;
11964;SDS011;6042;41.326;19.826;2022-08-03T08:50:51;12.23;;;2.50;;
11964;SDS011;6042;41.326;19.826;2022-08-03T08:53:20;18.67;;;3.28;;
11964;SDS011;6042;41.326;19.826;2022-08-03T08:55:57;2.60;;;1.38;;
11964;SDS011;6042;41.326;19.826;2022-08-03T08:58:33;10.07;;;2.03;;
11964;SDS011;6042;41.326;19.826;2022-08-03T09:01:04;8.70;;;2.22;;
11964;SDS011;6042;41.326;19.826;2022-08-03T09:03:33;10.10;;;2.33;;
11964;SDS011;6042;41.326;19.826;2022-08-03T09:06:01;14.70;;;2.80;;
11964;SDS011;6042;41.326;19.826;2022-08-03T09:08:31;6.07;;;2.13;;
11964;SDS011;6042;41.326;19.826;2022-08-03T09:11:00;5.38;;;2.20;;
11964;SDS011;6042;41.326;19.826;2022-08-03T09:13:28;2.35;;;1.50;;
11964;SDS011;6042;41.326;19.826;2022-08-03T09:16:12;41.20;;;6.07;;
11964;SDS011;6042;41.326;19.826;2022-08-03T09:18:42;5.20;;;1.52;;
11964;SDS011;6042;41.326;19.826;2022-08-03T09:21:13;9.00;;;1.98;;
11964;SDS011;6042;41.326;19.826;2022-08-03T09:23:58;2.33;;;1.23;;
11964;SDS011;6042;41.326;19.826;2022-08-03T09:26:33;3.42;;;1.70;;
11964;SDS011;6042;41.326;19.826;2022-08-03T09:29:03;10.18;;;2.38;;
11964;SDS011;6042;41.326;19.826;2022-08-03T09:31:41;2.85;;;1.60;;
11964;SDS011;6042;41.326;19.826;2022-08-03T09:34:12;2.50;;;1.40;;
11964;SDS011;6042;41.326;19.826;2022-08-03T09:36:44;1.45;;;1.35;;
11964;SDS011;6042;41.326;19.826;2022-08-03T09:39:14;2.00;;;1.40;;
11964;SDS011;6042;41.326;19.826;2022-08-03T09:41:44;1.52;;;1.42;;
11964;SDS011;6042;41.326;19.826;2022-08-03T09:44:14;11.93;;;2.60;;
11964;SDS011;6042;41.326;19.826;2022-08-03T09:46:53;6.05;;;1.58;;
11964;SDS011;6042;41.326;19.826;2022-08-03T09:49:23;4.72;;;1.75;;
11964;SDS011;6042;41.326;19.826;2022-08-03T09:51:52;5.28;;;1.83;;
11964;SDS011;6042;41.326;19.826;2022-08-03T09:54:41;2.50;;;1.73;;
11964;SDS011;6042;41.326;19.826;2022-08-03T09:57:20;6.70;;;2.00;;
11964;SDS011;6042;41.326;19.826;2022-08-03T09:59:51;37.97;;;8.52;;
11964;SDS011;6042;41.326;19.826;2022-08-03T10:02:39;6.65;;;2.13;;
11964;SDS011;6042;41.326;19.826;2022-08-03T10:05:09;8.85;;;3.05;;
11964;SDS011;6042;41.326;19.826;2022-08-03T10:07:45;9.63;;;2.80;;
11964;SDS011;6042;41.326;19.826;2022-08-03T10:10:16;4.40;;;2.15;;
11964;SDS011;6042;41.326;19.826;2022-08-03T10:12:57;4.68;;;2.20;;
11964;SDS011;6042;41.326;19.826;2022-08-03T10:15:27;2.42;;;1.70;;
11964;SDS011;6042;41.326;19.826;2022-08-03T10:18:17;2.38;;;1.90;;
11964;SDS011;6042;41.326;19.826;2022-08-03T10:20:48;2.88;;;1.90;;
11964;SDS011;6042;41.326;19.826;2022-08-03T10:23:19;7.35;;;2.40;;
11964;SDS011;6042;41.326;19.826;2022-08-03T10:25:51;26.48;;;5.20;;
11964;SDS011;6042;41.326;19.826;2022-08-03T10:28:24;16.05;;;2.60;;
11964;SDS011;6042;41.326;19.826;2022-08-03T10:31:00;5.18;;;2.20;;
11964;SDS011;6042;41.326;19.826;2022-08-03T10:33:31;7.47;;;1.70;;
11964;SDS011;6042;41.326;19.826;2022-08-03T10:36:18;4.13;;;2.03;;
11964;SDS011;6042;41.326;19.826;2022-08-03T10:38:50;4.95;;;1.90;;
11964;SDS011;6042;41.326;19.826;2022-08-03T10:41:19;3.42;;;1.90;;
11964;SDS011;6042;41.326;19.826;2022-08-03T10:43:50;2.60;;;1.70;;
11964;SDS011;6042;41.326;19.826;2022-08-03T10:46:23;4.82;;;1.80;;
11964;SDS011;6042;41.326;19.826;2022-08-03T10:48:55;1.98;;;1.73;;
11964;SDS011;6042;41.326;19.826;2022-08-03T10:51:27;2.78;;;1.52;;
11964;SDS011;6042;41.326;19.826;2022-08-03T10:53:58;3.00;;;1.75;;
11964;SDS011;6042;41.326;19.826;2022-08-03T10:56:37;5.53;;;2.15;;
11964;SDS011;6042;41.326;19.826;2022-08-03T11:05:38;1.80;;;1.60;;
11964;SDS011;6042;41.326;19.826;2022-08-03T11:08:19;5.50;;;2.17;;
11964;SDS011;6042;41.326;19.826;2022-08-03T11:10:50;37.92;;;7.13;;
11964;SDS011;6042;41.326;19.826;2022-08-03T11:13:20;21.13;;;3.75;;
11964;SDS011;6042;41.326;19.826;2022-08-03T11:15:51;9.02;;;2.97;;
11964;SDS011;6042;41.326;19.826;2022-08-03T11:18:28;2.35;;;1.70;;
11964;SDS011;6042;41.326;19.826;2022-08-03T11:20:59;3.17;;;1.70;;
11964;SDS011;6042;41.326;19.826;2022-08-03T11:23:44;6.35;;;2.10;;
11964;SDS011;6042;41.326;19.826;2022-08-03T11:26:32;14.23;;;4.85;;
11964;SDS011;6042;41.326;19.826;2022-08-03T11:31:55;15.70;;;3.33;;
11964;SDS011;6042;41.326;19.826;2022-08-03T11:34:24;7.28;;;2.40;;
11964;SDS011;6042;41.326;19.826;2022-08-03T11:39:59;18.42;;;3.90;;
11964;SDS011;6042;41.326;19.826;2022-08-03T11:42:37;5.57;;;2.00;;
11964;SDS011;6042;41.326;19.826;2022-08-03T11:45:07;3.80;;;1.90;;
11964;SDS011;6042;41.326;19.826;2022-08-03T11:47:40;2.67;;;2.20;;
11964;SDS011;6042;41.326;19.826;2022-08-03T11:50:17;5.43;;;2.38;;
11964;SDS011;6042;41.326;19.826;2022-08-03T11:52:48;7.22;;;2.28;;
11964;SDS011;6042;41.326;19.826;2022-08-03T11:55:18;8.80;;;4.28;;
11964;SDS011;6042;41.326;19.826;2022-08-03T11:57:47;13.02;;;3.35;;
11964;SDS011;6042;41.326;19.826;2022-08-03T12:00:36;7.82;;;2.72;;
11964;SDS011;6042;41.326;19.826;2022-08-03T12:03:07;10.57;;;2.80;;
11964;SDS011;6042;41.326;19.826;2022-08-03T12:05:39;7.63;;;3.10;;
11964;SDS011;6042;41.326;19.826;2022-08-03T12:08:31;11.45;;;3.38;;
11964;SDS011;6042;41.326;19.826;2022-08-03T12:11:03;8.13;;;3.20;;
11964;SDS011;6042;41.326;19.826;2022-08-03T12:13:40;7.93;;;3.70;;
11964;SDS011;6042;41.326;19.826;2022-08-03T12:16:29;11.82;;;4.93;;
11964;SDS011;6042;41.326;19.826;2022-08-03T12:18:58;17.05;;;5.72;;
11964;SDS011;6042;41.326;19.826;2022-08-03T12:21:28;17.10;;;6.30;;
11964;SDS011;6042;41.326;19.826;2022-08-03T12:23:58;11.18;;;6.57;;
11964;SDS011;6042;41.326;19.826;2022-08-03T12:26:29;11.23;;;6.82;;
11964;SDS011;6042;41.326;19.826;2022-08-03T12:29:24;13.85;;;6.60;;
11964;SDS011;6042;41.326;19.826;2022-08-03T12:31:53;25.55;;;8.80;;
11964;SDS011;6042;41.326;19.826;2022-08-03T12:34:22;10.80;;;6.13;;
11964;SDS011;6042;41.326;19.826;2022-08-03T12:36:57;9.85;;;5.43;;
11964;SDS011;6042;41.326;19.826;2022-08-03T12:39:30;11.43;;;5.38;;
11964;SDS011;6042;41.326;19.826;2022-08-03T12:41:58;8.50;;;5.20;;
11964;SDS011;6042;41.326;19.826;2022-08-03T12:44:30;13.02;;;5.50;;
11964;SDS011;6042;41.326;19.826;2022-08-03T12:47:00;15.95;;;5.70;;
11964;SDS011;6042;41.326;19.826;2022-08-03T12:49:43;6.65;;;4.20;;
11964;SDS011;6042;41.326;19.826;2022-08-03T12:52:12;13.52;;;5.47;;
11964;SDS011;6042;41.326;19.826;2022-08-03T12:54:43;12.02;;;8.18;;
11964;SDS011;6042;41.326;19.826;2022-08-03T12:57:23;9.45;;;5.63;;
11964;SDS011;6042;41.326;19.826;2022-08-03T12:59:51;13.23;;;5.05;;
11964;SDS011;6042;41.326;19.826;2022-08-03T13:02:23;13.45;;;5.90;;
11964;SDS011;6042;41.326;19.826;2022-08-03T13:04:53;13.07;;;5.40;;
11964;SDS011;6042;41.326;19.826;2022-08-03T13:07:22;11.60;;;4.82;;
11964;SDS011;6042;41.326;19.826;2022-08-03T13:09:53;6.82;;;4.18;;
11964;SDS011;6042;41.326;19.826;2022-08-03T13:12:23;8.10;;;4.28;;
11964;SDS011;6042;41.326;19.826;2022-08-03T13:14:54;7.30;;;3.70;;
11964;SDS011;6042;41.326;19.826;2022-08-03T13:17:25;5.97;;;3.35;;
11964;SDS011;6042;41.326;19.826;2022-08-03T13:19:54;5.43;;;3.60;;
11964;SDS011;6042;41.326;19.826;2022-08-03T13:22:23;6.38;;;3.20;;
11964;SDS011;6042;41.326;19.826;2022-08-03T13:24:55;11.45;;;3.33;;
11964;SDS011;6042;41.326;19.826;2022-08-03T13:27:27;5.57;;;2.25;;
11964;SDS011;6042;41.326;19.826;2022-08-03T13:30:16;10.02;;;3.28;;
11964;SDS011;6042;41.326;19.826;2022-08-03T13:32:56;7.18;;;2.20;;
11964;SDS011;6042;41.326;19.826;2022-08-03T13:35:26;6.32;;;1.95;;
11964;SDS011;6042;41.326;19.826;2022-08-03T13:37:54;10.57;;;2.38;;
11964;SDS011;6042;41.326;19.826;2022-08-03T13:40:24;7.93;;;2.40;;
11964;SDS011;6042;41.326;19.826;2022-08-03T13:42:56;8.63;;;2.20;;
11964;SDS011;6042;41.326;19.826;2022-08-03T13:45:24;4.78;;;1.90;;
11964;SDS011;6042;41.326;19.826;2022-08-03T13:47:55;3.70;;;1.85;;
11964;SDS011;6042;41.326;19.826;2022-08-03T13:50:24;4.70;;;2.30;;
11964;SDS011;6042;41.326;19.826;2022-08-03T13:52:52;2.85;;;1.90;;
11964;SDS011;6042;41.326;19.826;2022-08-03T13:55:21;10.43;;;2.03;;
11964;SDS011;6042;41.326;19.826;2022-08-03T13:57:52;7.68;;;2.17;;
11964;SDS011;6042;41.326;19.826;2022-08-03T14:00:32;3.90;;;2.00;;
11964;SDS011;6042;41.326;19.826;2022-08-03T14:03:01;7.75;;;2.10;;
11964;SDS011;6042;41.326;19.826;2022-08-03T14:05:39;7.18;;;2.95;;
11964;SDS011;6042;41.326;19.826;2022-08-03T14:08:08;14.15;;;3.45;;
11964;SDS011;6042;41.326;19.826;2022-08-03T14:10:39;4.38;;;2.35;;
11964;SDS011;6042;41.326;19.826;2022-08-03T14:13:11;4.82;;;2.50;;
11964;SDS011;6042;41.326;19.826;2022-08-03T14:15:43;7.22;;;2.50;;
11964;SDS011;6042;41.326;19.826;2022-08-03T14:18:17;7.32;;;2.60;;
11964;SDS011;6042;41.326;19.826;2022-08-03T14:20:59;9.82;;;2.97;;
11964;SDS011;6042;41.326;19.826;2022-08-03T14:23:33;8.15;;;2.55;;
11964;SDS011;6042;41.326;19.826;2022-08-03T14:26:03;5.78;;;2.38;;
11964;SDS011;6042;41.326;19.826;2022-08-03T14:28:33;7.78;;;3.17;;
11964;SDS011;6042;41.326;19.826;2022-08-03T14:31:03;3.65;;;2.20;;
11964;SDS011;6042;41.326;19.826;2022-08-03T14:33:41;8.73;;;2.60;;
11964;SDS011;6042;41.326;19.826;2022-08-03T14:36:09;7.45;;;2.50;;
11964;SDS011;6042;41.326;19.826;2022-08-03T14:38:38;18.05;;;4.05;;
11964;SDS011;6042;41.326;19.826;2022-08-03T14:41:06;11.38;;;3.03;;
11964;SDS011;6042;41.326;19.826;2022-08-03T14:43:49;5.15;;;2.10;;
11964;SDS011;6042;41.326;19.826;2022-08-03T14:46:28;3.65;;;1.98;;
11964;SDS011;6042;41.326;19.826;2022-08-03T14:48:57;6.90;;;2.58;;
11964;SDS011;6042;41.326;19.826;2022-08-03T14:51:45;10.80;;;2.38;;
11964;SDS011;6042;41.326;19.826;2022-08-03T14:54:19;10.50;;;3.28;;
11964;SDS011;6042;41.326;19.826;2022-08-03T14:56:47;10.10;;;2.60;;
11964;SDS011;6042;41.326;19.826;2022-08-03T14:59:17;5.40;;;2.67;;
11964;SDS011;6042;41.326;19.826;2022-08-03T15:01:46;4.78;;;2.40;;
11964;SDS011;6042;41.326;19.826;2022-08-03T15:04:34;6.97;;;2.20;;
11964;SDS011;6042;41.326;19.826;2022-08-03T15:07:02;3.65;;;2.03;;
11964;SDS011;6042;41.326;19.826;2022-08-03T15:09:31;5.60;;;2.42;;
11964;SDS011;6042;41.326;19.826;2022-08-03T15:12:00;10.57;;;4.18;;
11964;SDS011;6042;41.326;19.826;2022-08-03T15:14:31;3.30;;;2.20;;
11964;SDS011;6042;41.326;19.826;2022-08-03T15:17:03;5.35;;;4.85;;
11964;SDS011;6042;41.326;19.826;2022-08-03T15:19:32;5.20;;;2.83;;
11964;SDS011;6042;41.326;19.826;2022-08-03T15:22:23;3.65;;;2.80;;
11964;SDS011;6042;41.326;19.826;2022-08-03T15:25:00;4.45;;;2.55;;
11964;SDS011;6042;41.326;19.826;2022-08-03T15:27:49;8.05;;;3.40;;
11964;SDS011;6042;41.326;19.826;2022-08-03T15:30:31;4.95;;;2.60;;
11964;SDS011;6042;41.326;19.826;2022-08-03T15:33:02;4.38;;;2.33;;
11964;SDS011;6042;41.326;19.826;2022-08-03T15:35:31;4.55;;;2.47;;
11964;SDS011;6042;41.326;19.826;2022-08-03T15:38:00;10.23;;;3.17;;
11964;SDS011;6042;41.326;19.826;2022-08-03T15:40:34;5.65;;;2.72;;
11964;SDS011;6042;41.326;19.826;2022-08-03T15:43:03;3.22;;;2.38;;
11964;SDS011;6042;41.326;19.826;2022-08-03T15:45:33;4.78;;;2.60;;
11964;SDS011;6042;41.326;19.826;2022-08-03T15:48:03;8.85;;;2.55;;
11964;SDS011;6042;41.326;19.826;2022-08-03T15:50:32;7.07;;;2.63;;
11964;SDS011;6042;41.326;19.826;2022-08-03T15:53:01;9.73;;;2.90;;
11964;SDS011;6042;41.326;19.826;2022-08-03T15:55:29;15.93;;;3.65;;
11964;SDS011;6042;41.326;19.826;2022-08-03T15:57:58;6.70;;;3.17;;
11964;SDS011;6042;41.326;19.826;2022-08-03T16:00:48;8.82;;;3.15;;
11964;SDS011;6042;41.326;19.826;2022-08-03T16:03:16;14.13;;;5.43;;
11964;SDS011;6042;41.326;19.826;2022-08-03T16:05:45;2.85;;;2.47;;
11964;SDS011;6042;41.326;19.826;2022-08-03T16:08:19;5.20;;;3.15;;
11964;SDS011;6042;41.326;19.826;2022-08-03T16:10:49;7.65;;;3.53;;
11964;SDS011;6042;41.326;19.826;2022-08-03T16:13:18;3.65;;;2.95;;
11964;SDS011;6042;41.326;19.826;2022-08-03T16:16:08;9.25;;;4.07;;
11964;SDS011;6042;41.326;19.826;2022-08-03T16:18:37;6.18;;;3.03;;
11964;SDS011;6042;41.326;19.826;2022-08-03T16:21:05;4.65;;;3.10;;
11964;SDS011;6042;41.326;19.826;2022-08-03T16:23:45;11.05;;;3.35;;
11964;SDS011;6042;41.326;19.826;2022-08-03T16:26:14;5.57;;;2.75;;
11964;SDS011;6042;41.326;19.826;2022-08-03T16:28:42;9.32;;;3.45;;
11964;SDS011;6042;41.326;19.826;2022-08-03T16:31:12;3.08;;;2.60;;
11964;SDS011;6042;41.326;19.826;2022-08-03T16:33:41;7.88;;;3.10;;
11964;SDS011;6042;41.326;19.826;2022-08-03T16:36:11;6.97;;;3.20;;
11964;SDS011;6042;41.326;19.826;2022-08-03T16:38:39;7.07;;;3.33;;
11964;SDS011;6042;41.326;19.826;2022-08-03T16:41:08;6.05;;;3.60;;
11964;SDS011;6042;41.326;19.826;2022-08-03T16:43:36;5.00;;;3.28;;
11964;SDS011;6042;41.326;19.826;2022-08-03T16:46:05;7.93;;;3.40;;
11964;SDS011;6042;41.326;19.826;2022-08-03T16:48:35;7.82;;;4.18;;
11964;SDS011;6042;41.326;19.826;2022-08-03T16:51:03;5.18;;;3.30;;
11964;SDS011;6042;41.326;19.826;2022-08-03T16:53:32;4.07;;;3.20;;
11964;SDS011;6042;41.326;19.826;2022-08-03T16:56:21;9.25;;;3.67;;
11964;SDS011;6042;41.326;19.826;2022-08-03T16:58:49;4.68;;;3.67;;
11964;SDS011;6042;41.326;19.826;2022-08-03T17:01:18;6.28;;;3.55;;
11964;SDS011;6042;41.326;19.826;2022-08-03T17:03:56;32.83;;;8.52;;
11964;SDS011;6042;41.326;19.826;2022-08-03T17:06:30;10.93;;;4.95;;
11964;SDS011;6042;41.326;19.826;2022-08-03T17:09:03;6.90;;;4.43;;
11964;SDS011;6042;41.326;19.826;2022-08-03T17:11:36;6.88;;;3.70;;
11964;SDS011;6042;41.326;19.826;2022-08-03T17:14:13;8.45;;;5.00;;
11964;SDS011;6042;41.326;19.826;2022-08-03T17:16:42;23.05;;;12.20;;
11964;SDS011;6042;41.326;19.826;2022-08-03T17:19:21;7.75;;;4.40;;
11964;SDS011;6042;41.326;19.826;2022-08-03T17:21:54;29.90;;;6.43;;
11964;SDS011;6042;41.326;19.826;2022-08-03T17:24:30;8.40;;;4.63;;
11964;SDS011;6042;41.326;19.826;2022-08-03T17:27:01;6.68;;;4.50;;
11964;SDS011;6042;41.326;19.826;2022-08-03T17:29:35;15.90;;;5.00;;
11964;SDS011;6042;41.326;19.826;2022-08-03T17:32:11;6.97;;;4.00;;
11964;SDS011;6042;41.326;19.826;2022-08-03T17:34:48;5.35;;;4.85;;
11964;SDS011;6042;41.326;19.826;2022-08-03T17:37:18;7.63;;;4.70;;
11964;SDS011;6042;41.326;19.826;2022-08-03T17:40:09;8.23;;;4.50;;
11964;SDS011;6042;41.326;19.826;2022-08-03T17:42:44;12.63;;;4.78;;
11964;SDS011;6042;41.326;19.826;2022-08-03T17:45:16;12.95;;;7.18;;
11964;SDS011;6042;41.326;19.826;2022-08-03T17:47:45;8.05;;;6.30;;
11964;SDS011;6042;41.326;19.826;2022-08-03T17:50:26;19.17;;;15.93;;
11964;SDS011;6042;41.326;19.826;2022-08-03T17:53:07;9.02;;;4.63;;
11964;SDS011;6042;41.326;19.826;2022-08-03T17:55:52;6.22;;;4.45;;
11964;SDS011;6042;41.326;19.826;2022-08-03T17:58:36;36.70;;;9.60;;
11964;SDS011;6042;41.326;19.826;2022-08-03T18:01:18;14.73;;;5.70;;
11964;SDS011;6042;41.326;19.826;2022-08-03T18:04:31;13.77;;;4.40;;
11964;SDS011;6042;41.326;19.826;2022-08-03T18:07:09;7.28;;;4.13;;
11964;SDS011;6042;41.326;19.826;2022-08-03T18:09:39;7.10;;;4.22;;
11964;SDS011;6042;41.326;19.826;2022-08-03T18:12:39;7.78;;;4.22;;
11964;SDS011;6042;41.326;19.826;2022-08-03T18:15:20;8.45;;;4.68;;
11964;SDS011;6042;41.326;19.826;2022-08-03T18:17:52;9.45;;;4.55;;
11964;SDS011;6042;41.326;19.826;2022-08-03T18:20:28;36.25;;;7.15;;
11964;SDS011;6042;41.326;19.826;2022-08-03T18:23:09;18.55;;;5.22;;
11964;SDS011;6042;41.326;19.826;2022-08-03T18:25:59;29.38;;;6.55;;
11964;SDS011;6042;41.326;19.826;2022-08-03T18:28:32;24.52;;;6.05;;
11964;SDS011;6042;41.326;19.826;2022-08-03T18:31:04;16.42;;;5.28;;
11964;SDS011;6042;41.326;19.826;2022-08-03T18:33:34;12.07;;;4.70;;
11964;SDS011;6042;41.326;19.826;2022-08-03T18:36:26;5.20;;;4.30;;
11964;SDS011;6042;41.326;19.826;2022-08-03T18:39:01;7.05;;;4.43;;
11964;SDS011;6042;41.326;19.826;2022-08-03T18:41:31;23.30;;;7.22;;
11964;SDS011;6042;41.326;19.826;2022-08-03T18:44:02;33.60;;;6.85;;
11964;SDS011;6042;41.326;19.826;2022-08-03T18:46:53;11.00;;;4.95;;
11964;SDS011;6042;41.326;19.826;2022-08-03T18:49:43;17.50;;;5.50;;
11964;SDS011;6042;41.326;19.826;2022-08-03T18:52:20;24.27;;;6.78;;
11964;SDS011;6042;41.326;19.826;2022-08-03T18:55:03;38.88;;;9.10;;
11964;SDS011;6042;41.326;19.826;2022-08-03T18:57:57;58.10;;;10.65;;
11964;SDS011;6042;41.326;19.826;2022-08-03T19:00:32;116.72;;;13.70;;
11964;SDS011;6042;41.326;19.826;2022-08-03T19:03:21;49.58;;;9.27;;
11964;SDS011;6042;41.326;19.826;2022-08-03T19:06:09;69.43;;;10.73;;
11964;SDS011;6042;41.326;19.826;2022-08-03T19:08:47;51.35;;;10.48;;
11964;SDS011;6042;41.326;19.826;2022-08-03T19:11:23;52.38;;;10.18;;
11964;SDS011;6042;41.326;19.826;2022-08-03T19:14:17;26.58;;;7.35;;
11964;SDS011;6042;41.326;19.826;2022-08-03T19:16:55;54.80;;;9.27;;
11964;SDS011;6042;41.326;19.826;2022-08-03T19:19:27;25.45;;;6.70;;
11964;SDS011;6042;41.326;19.826;2022-08-03T19:22:10;22.92;;;7.38;;
11964;SDS011;6042;41.326;19.826;2022-08-03T19:24:42;31.20;;;9.27;;
11964;SDS011;6042;41.326;19.826;2022-08-03T19:27:14;46.80;;;9.80;;
11964;SDS011;6042;41.326;19.826;2022-08-03T19:29:44;30.45;;;8.43;;
11964;SDS011;6042;41.326;19.826;2022-08-03T19:32:27;30.43;;;7.13;;
11964;SDS011;6042;41.326;19.826;2022-08-03T19:34:57;29.92;;;7.30;;
11964;SDS011;6042;41.326;19.826;2022-08-03T19:37:27;21.73;;;5.83;;
11964;SDS011;6042;41.326;19.826;2022-08-03T19:40:06;30.20;;;8.65;;
11964;SDS011;6042;41.326;19.826;2022-08-03T19:42:39;177.48;;;23.50;;
11964;SDS011;6042;41.326;19.826;2022-08-03T19:45:14;36.42;;;9.07;;
11964;SDS011;6042;41.326;19.826;2022-08-03T19:48:08;35.50;;;7.47;;
11964;SDS011;6042;41.326;19.826;2022-08-03T19:50:39;50.67;;;8.98;;
11964;SDS011;6042;41.326;19.826;2022-08-03T19:53:11;24.65;;;6.78;;
11964;SDS011;6042;41.326;19.826;2022-08-03T19:55:42;34.47;;;7.43;;
11964;SDS011;6042;41.326;19.826;2022-08-03T19:58:16;19.42;;;5.72;;
11964;SDS011;6042;41.326;19.826;2022-08-03T20:00:54;23.30;;;6.10;;
11964;SDS011;6042;41.326;19.826;2022-08-03T20:03:25;20.60;;;5.38;;
11964;SDS011;6042;41.326;19.826;2022-08-03T20:06:08;29.50;;;6.23;;
11964;SDS011;6042;41.326;19.826;2022-08-03T20:08:42;21.27;;;5.97;;
11964;SDS011;6042;41.326;19.826;2022-08-03T20:11:18;21.77;;;5.90;;
11964;SDS011;6042;41.326;19.826;2022-08-03T20:13:55;26.25;;;6.00;;
11964;SDS011;6042;41.326;19.826;2022-08-03T20:16:26;23.13;;;6.40;;
11964;SDS011;6042;41.326;19.826;2022-08-03T20:18:54;27.17;;;6.73;;
11964;SDS011;6042;41.326;19.826;2022-08-03T20:21:24;16.70;;;5.43;;
11964;SDS011;6042;41.326;19.826;2022-08-03T20:23:59;73.20;;;13.77;;
11964;SDS011;6042;41.326;19.826;2022-08-03T20:26:51;29.50;;;8.03;;
11964;SDS011;6042;41.326;19.826;2022-08-03T20:29:26;28.93;;;6.37;;
11964;SDS011;6042;41.326;19.826;2022-08-03T20:32:18;17.37;;;5.43;;
11964;SDS011;6042;41.326;19.826;2022-08-03T20:34:50;18.77;;;5.33;;
11964;SDS011;6042;41.326;19.826;2022-08-03T20:37:19;25.50;;;6.10;;
11964;SDS011;6042;41.326;19.826;2022-08-03T20:39:47;39.60;;;6.70;;
11964;SDS011;6042;41.326;19.826;2022-08-03T20:42:16;17.83;;;5.20;;
11964;SDS011;6042;41.326;19.826;2022-08-03T20:44:49;14.00;;;5.10;;
11964;SDS011;6042;41.326;19.826;2022-08-03T20:47:39;18.63;;;5.40;;
11964;SDS011;6042;41.326;19.826;2022-08-03T20:50:16;20.50;;;5.43;;
11964;SDS011;6042;41.326;19.826;2022-08-03T20:52:48;9.23;;;4.37;;
11964;SDS011;6042;41.326;19.826;2022-08-03T20:55:17;29.40;;;7.80;;
11964;SDS011;6042;41.326;19.826;2022-08-03T20:58:06;12.90;;;5.43;;